sensor_id;sensor_type;location;lat;lon;timestamp;pressure;altitude;pressure_sealevel;temperature;humidity
19789;BME280;10054;59.332;18.244;2023-05-23T00:01:34;101111.47;;;12.79;65.00
19789;BME280;10054;59.332;18.244;2023-05-23T00:04:06;101110.82;;;12.76;65.20
19789;BME280;10054;59.332;18.244;2023-05-23T00:06:35;101112.72;;;12.74;65.26
19789;BME280;10054;59.332;18.244;2023-05-23T00:09:05;101115.18;;;12.70;65.28
19789;BME280;10054;59.332;18.244;2023-05-23T00:11:34;101116.22;;;12.67;65.46
19789;BME280;10054;59.332;18.244;2023-05-23T00:14:03;101114.24;;;12.64;65.54
19789;BME280;10054;59.332;18.244;2023-05-23T00:16:34;101108.89;;;12.58;65.65
19789;BME280;10054;59.332;18.244;2023-05-23T00:19:04;101106.16;;;12.53;65.97
19789;BME280;10054;59.332;18.244;2023-05-23T00:21:33;101095.58;;;12.45;66.21
19789;BME280;10054;59.332;18.244;2023-05-23T00:24:02;101098.04;;;12.41;66.49
19789;BME280;10054;59.332;18.244;2023-05-23T00:26:31;101093.03;;;12.37;66.79
19789;BME280;10054;59.332;18.244;2023-05-23T00:29:03;101092.56;;;12.30;67.08
19789;BME280;10054;59.332;18.244;2023-05-23T00:31:32;101085.77;;;12.26;67.26
19789;BME280;10054;59.332;18.244;2023-05-23T00:34:02;101087.28;;;12.23;67.26
19789;BME280;10054;59.332;18.244;2023-05-23T00:36:31;101089.45;;;12.24;67.14
19789;BME280;10054;59.332;18.244;2023-05-23T00:39:01;101087.56;;;12.26;67.07
19789;BME280;10054;59.332;18.244;2023-05-23T00:41:30;101088.70;;;12.29;66.98
19789;BME280;10054;59.332;18.244;2023-05-23T00:43:59;101083.69;;;12.31;66.83
19789;BME280;10054;59.332;18.244;2023-05-23T00:46:29;101083.69;;;12.31;66.73
19789;BME280;10054;59.332;18.244;2023-05-23T00:48:58;101082.36;;;12.31;66.66
19789;BME280;10054;59.332;18.244;2023-05-23T00:51:27;101075.84;;;12.30;66.78
19789;BME280;10054;59.332;18.244;2023-05-23T00:53:58;101079.53;;;12.27;66.95
19789;BME280;10054;59.332;18.244;2023-05-23T00:56:28;101080.09;;;12.25;67.13
19789;BME280;10054;59.332;18.244;2023-05-23T00:58:58;101079.25;;;12.25;67.18
19789;BME280;10054;59.332;18.244;2023-05-23T01:01:30;101066.97;;;12.24;67.38
19789;BME280;10054;59.332;18.244;2023-05-23T01:03:59;101067.53;;;12.22;67.74
19789;BME280;10054;59.332;18.244;2023-05-23T01:06:29;101066.31;;;12.20;68.08
19789;BME280;10054;59.332;18.244;2023-05-23T01:08:59;101066.31;;;12.20;68.34
19789;BME280;10054;59.332;18.244;2023-05-23T01:11:49;101079.44;;;12.22;68.50
19789;BME280;10054;59.332;18.244;2023-05-23T01:14:19;101066.69;;;12.21;68.40
19789;BME280;10054;59.332;18.244;2023-05-23T01:16:56;101070.66;;;12.21;68.76
19789;BME280;10054;59.332;18.244;2023-05-23T01:28:02;101083.69;;;12.17;68.90
19789;BME280;10054;59.332;18.244;2023-05-23T01:30:34;101084.34;;;12.13;69.05
19789;BME280;10054;59.332;18.244;2023-05-23T01:33:03;101089.07;;;12.08;69.83
19789;BME280;10054;59.332;18.244;2023-05-23T01:35:32;101086.33;;;12.03;70.41
19789;BME280;10054;59.332;18.244;2023-05-23T01:38:01;101088.49;;;11.96;70.69
19789;BME280;10054;59.332;18.244;2023-05-23T01:40:34;101083.67;;;11.89;71.17
19789;BME280;10054;59.332;18.244;2023-05-23T01:43:03;101078.97;;;11.79;71.82
19789;BME280;10054;59.332;18.244;2023-05-23T01:45:33;101077.98;;;11.73;72.09
19789;BME280;10054;59.332;18.244;2023-05-23T01:48:03;101083.92;;;11.70;72.35
19789;BME280;10054;59.332;18.244;2023-05-23T01:50:33;101079.95;;;11.70;72.42
19789;BME280;10054;59.332;18.244;2023-05-23T01:53:05;101083.26;;;11.66;73.22
19789;BME280;10054;59.332;18.244;2023-05-23T01:55:41;101089.47;;;11.58;73.60
19789;BME280;10054;59.332;18.244;2023-05-23T01:58:11;101081.81;;;11.53;74.41
19789;BME280;10054;59.332;18.244;2023-05-23T02:00:40;101083.13;;;11.53;73.98
19789;BME280;10054;59.332;18.244;2023-05-23T02:03:10;101090.03;;;11.56;74.09
19789;BME280;10054;59.332;18.244;2023-05-23T02:05:39;101088.88;;;11.53;74.23
19789;BME280;10054;59.332;18.244;2023-05-23T02:08:07;101088.88;;;11.53;74.23
19789;BME280;10054;59.332;18.244;2023-05-23T02:10:38;101077.64;;;11.49;74.61
19789;BME280;10054;59.332;18.244;2023-05-23T02:13:07;101079.53;;;11.47;74.99
19789;BME280;10054;59.332;18.244;2023-05-23T02:15:36;101085.46;;;11.44;75.32
19789;BME280;10054;59.332;18.244;2023-05-23T02:18:05;101085.46;;;11.44;75.32
19789;BME280;10054;59.332;18.244;2023-05-23T02:20:33;101081.68;;;11.41;75.52
19789;BME280;10054;59.332;18.244;2023-05-23T02:23:03;101077.72;;;11.41;75.77
19789;BME280;10054;59.332;18.244;2023-05-23T02:25:32;101071.30;;;11.38;76.28
19789;BME280;10054;59.332;18.244;2023-05-23T02:28:01;101067.80;;;11.37;76.75
19789;BME280;10054;59.332;18.244;2023-05-23T02:30:29;101069.59;;;11.37;76.98
19789;BME280;10054;59.332;18.244;2023-05-23T02:32:58;101065.54;;;11.38;77.16
19789;BME280;10054;59.332;18.244;2023-05-23T02:35:27;101056.49;;;11.42;77.23
19789;BME280;10054;59.332;18.244;2023-05-23T02:37:56;101056.49;;;11.42;77.23
19789;BME280;10054;59.332;18.244;2023-05-23T02:40:25;101055.84;;;11.46;78.15
19789;BME280;10054;59.332;18.244;2023-05-23T02:42:55;101054.72;;;11.50;78.70
19789;BME280;10054;59.332;18.244;2023-05-23T02:45:24;101052.66;;;11.55;79.23
19789;BME280;10054;59.332;18.244;2023-05-23T02:47:53;101046.53;;;11.62;79.90
19789;BME280;10054;59.332;18.244;2023-05-23T02:50:22;101046.27;;;11.73;80.74
19789;BME280;10054;59.332;18.244;2023-05-23T02:52:51;101039.61;;;11.82;81.23
19789;BME280;10054;59.332;18.244;2023-05-23T02:55:21;101039.58;;;11.89;81.85
19789;BME280;10054;59.332;18.244;2023-05-23T02:57:50;101039.20;;;11.95;82.25
19789;BME280;10054;59.332;18.244;2023-05-23T03:00:19;101032.59;;;12.02;82.39
19789;BME280;10054;59.332;18.244;2023-05-23T03:02:49;101024.38;;;12.07;82.58
19789;BME280;10054;59.332;18.244;2023-05-23T03:05:18;101023.14;;;12.12;82.59
19789;BME280;10054;59.332;18.244;2023-05-23T03:07:47;101023.80;;;12.16;82.84
19789;BME280;10054;59.332;18.244;2023-05-23T03:10:18;101023.52;;;12.21;82.74
19789;BME280;10054;59.332;18.244;2023-05-23T03:12:47;101018.50;;;12.23;83.00
19789;BME280;10054;59.332;18.244;2023-05-23T03:15:17;101018.31;;;12.26;83.23
19789;BME280;10054;59.332;18.244;2023-05-23T03:17:47;101023.78;;;12.30;83.64
19789;BME280;10054;59.332;18.244;2023-05-23T03:20:16;101014.91;;;12.31;83.96
19789;BME280;10054;59.332;18.244;2023-05-23T03:22:45;101013.95;;;12.32;84.05
19789;BME280;10054;59.332;18.244;2023-05-23T03:25:17;101011.69;;;12.33;84.41
19789;BME280;10054;59.332;18.244;2023-05-23T03:27:47;101011.11;;;12.35;84.42
19789;BME280;10054;59.332;18.244;2023-05-23T03:30:16;101011.87;;;12.37;84.66
19789;BME280;10054;59.332;18.244;2023-05-23T03:32:45;101008.17;;;12.40;84.82
19789;BME280;10054;59.332;18.244;2023-05-23T03:35:14;101000.05;;;12.43;84.92
19789;BME280;10054;59.332;18.244;2023-05-23T03:37:43;101003.81;;;12.46;84.98
19789;BME280;10054;59.332;18.244;2023-05-23T03:40:12;101001.34;;;12.50;85.03
19789;BME280;10054;59.332;18.244;2023-05-23T03:42:41;101003.42;;;12.52;85.31
19789;BME280;10054;59.332;18.244;2023-05-23T03:45:10;100994.06;;;12.54;85.32
19789;BME280;10054;59.332;18.244;2023-05-23T03:47:39;100992.16;;;12.56;85.72
19789;BME280;10054;59.332;18.244;2023-05-23T03:50:10;100993.86;;;12.57;85.83
19789;BME280;10054;59.332;18.244;2023-05-23T03:52:39;100998.58;;;12.59;86.02
19789;BME280;10054;59.332;18.244;2023-05-23T03:55:09;100994.98;;;12.60;86.15
19789;BME280;10054;59.332;18.244;2023-05-23T03:57:37;100991.30;;;12.62;86.21
19789;BME280;10054;59.332;18.244;2023-05-23T04:00:07;100989.59;;;12.61;86.62
19789;BME280;10054;59.332;18.244;2023-05-23T04:02:39;100990.92;;;12.61;86.84
19789;BME280;10054;59.332;18.244;2023-05-23T04:05:08;100978.63;;;12.60;87.26
19789;BME280;10054;59.332;18.244;2023-05-23T04:07:38;100976.46;;;12.60;87.56
19789;BME280;10054;59.332;18.244;2023-05-23T04:10:08;100973.34;;;12.60;87.61
19789;BME280;10054;59.332;18.244;2023-05-23T04:12:37;100975.61;;;12.59;87.62
19789;BME280;10054;59.332;18.244;2023-05-23T04:15:10;100968.89;;;12.61;87.66
19789;BME280;10054;59.332;18.244;2023-05-23T04:17:40;100973.24;;;12.62;88.53
19789;BME280;10054;59.332;18.244;2023-05-23T04:22:59;100963.23;;;12.72;87.91
19789;BME280;10054;59.332;18.244;2023-05-23T04:25:30;100959.98;;;12.81;88.44
19789;BME280;10054;59.332;18.244;2023-05-23T04:28:06;100962.97;;;12.90;89.22
19789;BME280;10054;59.332;18.244;2023-05-23T04:30:36;100955.80;;;13.04;88.96
19789;BME280;10054;59.332;18.244;2023-05-23T04:33:05;100956.70;;;13.18;88.29
19789;BME280;10054;59.332;18.244;2023-05-23T04:35:34;100957.09;;;13.31;88.40
19789;BME280;10054;59.332;18.244;2023-05-23T04:38:06;100939.89;;;13.49;88.36
19789;BME280;10054;59.332;18.244;2023-05-23T04:40:34;100938.89;;;13.89;86.40
19789;BME280;10054;59.332;18.244;2023-05-23T04:43:06;100937.59;;;14.12;84.50
19789;BME280;10054;59.332;18.244;2023-05-23T04:45:38;100937.91;;;14.26;83.72
19789;BME280;10054;59.332;18.244;2023-05-23T04:48:25;100940.16;;;14.38;84.29
19789;BME280;10054;59.332;18.244;2023-05-23T04:50:56;100944.59;;;14.50;82.80
19789;BME280;10054;59.332;18.244;2023-05-23T04:53:26;100939.43;;;14.54;82.29
19789;BME280;10054;59.332;18.244;2023-05-23T04:55:56;100934.85;;;14.56;82.00
19789;BME280;10054;59.332;18.244;2023-05-23T04:58:25;100928.83;;;14.60;82.47
19789;BME280;10054;59.332;18.244;2023-05-23T05:00:55;100936.03;;;14.76;82.81
19789;BME280;10054;59.332;18.244;2023-05-23T05:03:25;100931.78;;;15.20;81.21
19789;BME280;10054;59.332;18.244;2023-05-23T05:05:54;100926.64;;;15.74;79.04
19789;BME280;10054;59.332;18.244;2023-05-23T05:08:23;100925.86;;;16.22;75.29
19789;BME280;10054;59.332;18.244;2023-05-23T05:10:53;100926.57;;;16.56;73.00
19789;BME280;10054;59.332;18.244;2023-05-23T05:13:23;100920.88;;;16.93;72.10
19789;BME280;10054;59.332;18.244;2023-05-23T05:15:53;100918.02;;;17.21;69.31
19789;BME280;10054;59.332;18.244;2023-05-23T05:18:24;100912.04;;;17.44;68.67
19789;BME280;10054;59.332;18.244;2023-05-23T05:20:54;100908.06;;;17.74;66.82
19789;BME280;10054;59.332;18.244;2023-05-23T05:23:25;100905.10;;;18.02;66.70
19789;BME280;10054;59.332;18.244;2023-05-23T05:25:59;100896.86;;;18.24;64.61
19789;BME280;10054;59.332;18.244;2023-05-23T05:28:27;100896.95;;;18.48;64.31
19789;BME280;10054;59.332;18.244;2023-05-23T05:30:57;100893.86;;;18.71;63.18
19789;BME280;10054;59.332;18.244;2023-05-23T05:33:26;100893.92;;;18.85;60.68
19789;BME280;10054;59.332;18.244;2023-05-23T05:36:00;100897.41;;;19.05;60.75
19789;BME280;10054;59.332;18.244;2023-05-23T05:38:29;100898.70;;;19.24;60.67
19789;BME280;10054;59.332;18.244;2023-05-23T05:41:00;100901.59;;;19.27;58.14
19789;BME280;10054;59.332;18.244;2023-05-23T05:43:30;100892.83;;;19.11;57.45
19789;BME280;10054;59.332;18.244;2023-05-23T05:45:59;100890.58;;;19.07;58.40
19789;BME280;10054;59.332;18.244;2023-05-23T05:48:29;100895.54;;;19.25;58.42
19789;BME280;10054;59.332;18.244;2023-05-23T05:50:59;100888.61;;;19.46;57.84
19789;BME280;10054;59.332;18.244;2023-05-23T05:53:31;100888.77;;;19.67;57.42
19789;BME280;10054;59.332;18.244;2023-05-23T05:56:00;100890.36;;;19.88;56.55
19789;BME280;10054;59.332;18.244;2023-05-23T05:58:30;100885.84;;;20.02;56.17
19789;BME280;10054;59.332;18.244;2023-05-23T06:01:01;100879.40;;;20.13;55.44
19789;BME280;10054;59.332;18.244;2023-05-23T06:03:30;100882.40;;;20.27;55.35
19789;BME280;10054;59.332;18.244;2023-05-23T06:05:59;100875.20;;;20.42;55.16
19789;BME280;10054;59.332;18.244;2023-05-23T06:08:29;100874.17;;;20.56;54.51
19789;BME280;10054;59.332;18.244;2023-05-23T06:10:58;100868.34;;;20.61;53.75
19789;BME280;10054;59.332;18.244;2023-05-23T06:13:27;100866.61;;;20.74;53.59
19789;BME280;10054;59.332;18.244;2023-05-23T06:15:56;100869.07;;;20.93;53.90
19789;BME280;10054;59.332;18.244;2023-05-23T06:18:25;100874.31;;;20.98;52.45
19789;BME280;10054;59.332;18.244;2023-05-23T06:20:54;100869.26;;;20.95;50.95
19789;BME280;10054;59.332;18.244;2023-05-23T06:23:23;100877.64;;;20.96;51.90
19789;BME280;10054;59.332;18.244;2023-05-23T06:25:52;100874.02;;;21.06;51.38
19789;BME280;10054;59.332;18.244;2023-05-23T06:28:21;100867.80;;;21.23;51.20
19789;BME280;10054;59.332;18.244;2023-05-23T06:30:51;100861.68;;;21.39;50.93
19789;BME280;10054;59.332;18.244;2023-05-23T06:33:20;100859.40;;;21.52;50.81
19789;BME280;10054;59.332;18.244;2023-05-23T06:35:49;100854.03;;;21.60;50.47
19789;BME280;10054;59.332;18.244;2023-05-23T06:38:18;100849.70;;;21.67;50.19
19789;BME280;10054;59.332;18.244;2023-05-23T06:40:47;100850.22;;;21.71;48.87
19789;BME280;10054;59.332;18.244;2023-05-23T06:43:17;100844.70;;;21.76;48.59
19789;BME280;10054;59.332;18.244;2023-05-23T06:45:47;100841.86;;;21.82;48.27
19789;BME280;10054;59.332;18.244;2023-05-23T06:48:17;100842.22;;;21.87;47.82
19789;BME280;10054;59.332;18.244;2023-05-23T06:50:47;100850.14;;;22.01;47.84
19789;BME280;10054;59.332;18.244;2023-05-23T06:53:16;100849.20;;;22.14;46.97
19789;BME280;10054;59.332;18.244;2023-05-23T06:55:45;100849.55;;;22.23;46.26
19789;BME280;10054;59.332;18.244;2023-05-23T06:58:16;100853.25;;;22.26;46.34
19789;BME280;10054;59.332;18.244;2023-05-23T07:00:44;100850.55;;;22.34;46.25
19789;BME280;10054;59.332;18.244;2023-05-23T07:03:15;100854.76;;;22.45;45.90
19789;BME280;10054;59.332;18.244;2023-05-23T07:05:44;100853.25;;;22.50;45.79
19789;BME280;10054;59.332;18.244;2023-05-23T07:08:14;100846.36;;;22.60;45.49
19789;BME280;10054;59.332;18.244;2023-05-23T07:10:45;100845.19;;;22.67;45.39
19789;BME280;10054;59.332;18.244;2023-05-23T07:13:18;100851.73;;;22.72;45.49
19789;BME280;10054;59.332;18.244;2023-05-23T07:15:47;100851.44;;;22.79;45.34
19789;BME280;10054;59.332;18.244;2023-05-23T07:18:16;100855.46;;;22.87;45.01
19789;BME280;10054;59.332;18.244;2023-05-23T07:20:45;100856.13;;;22.85;44.33
19789;BME280;10054;59.332;18.244;2023-05-23T07:23:18;100856.47;;;22.82;44.01
19789;BME280;10054;59.332;18.244;2023-05-23T07:25:47;100851.44;;;22.79;44.46
19789;BME280;10054;59.332;18.244;2023-05-23T07:28:19;100849.89;;;22.77;44.66
19789;BME280;10054;59.332;18.244;2023-05-23T07:30:48;100847.36;;;22.75;44.62
19789;BME280;10054;59.332;18.244;2023-05-23T07:33:17;100851.06;;;22.74;43.69
19789;BME280;10054;59.332;18.244;2023-05-23T07:35:47;100846.86;;;22.68;43.48
19789;BME280;10054;59.332;18.244;2023-05-23T07:38:17;100844.17;;;22.55;43.91
19789;BME280;10054;59.332;18.244;2023-05-23T07:40:46;100841.48;;;22.55;44.19
19789;BME280;10054;59.332;18.244;2023-05-23T07:43:15;100845.02;;;22.56;45.08
19789;BME280;10054;59.332;18.244;2023-05-23T07:45:44;100843.67;;;22.56;44.81
19789;BME280;10054;59.332;18.244;2023-05-23T07:48:16;100844.00;;;22.45;43.97
19789;BME280;10054;59.332;18.244;2023-05-23T07:50:45;100849.38;;;22.37;42.26
19789;BME280;10054;59.332;18.244;2023-05-23T07:53:16;100846.52;;;22.34;43.12
19789;BME280;10054;59.332;18.244;2023-05-23T07:55:45;100846.00;;;22.30;43.62
19789;BME280;10054;59.332;18.244;2023-05-23T07:58:14;100841.81;;;22.36;43.66
19789;BME280;10054;59.332;18.244;2023-05-23T08:00:44;100841.82;;;22.48;43.86
19789;BME280;10054;59.332;18.244;2023-05-23T08:03:15;100839.80;;;22.58;43.32
19789;BME280;10054;59.332;18.244;2023-05-23T08:05:47;100840.65;;;22.55;41.78
19789;BME280;10054;59.332;18.244;2023-05-23T08:08:16;100837.63;;;22.62;42.40
19789;BME280;10054;59.332;18.244;2023-05-23T08:10:46;100839.97;;;22.73;40.96
19789;BME280;10054;59.332;18.244;2023-05-23T08:13:16;100838.96;;;22.74;41.71
19789;BME280;10054;59.332;18.244;2023-05-23T08:15:47;100835.94;;;22.69;41.23
19789;BME280;10054;59.332;18.244;2023-05-23T08:18:17;100842.32;;;22.76;42.84
19789;BME280;10054;59.332;18.244;2023-05-23T08:20:46;100834.10;;;22.90;42.75
19789;BME280;10054;59.332;18.244;2023-05-23T08:23:16;100832.74;;;22.98;42.16
19789;BME280;10054;59.332;18.244;2023-05-23T08:25:45;100829.84;;;23.08;41.64
19789;BME280;10054;59.332;18.244;2023-05-23T08:28:14;100832.02;;;23.08;40.94
19789;BME280;10054;59.332;18.244;2023-05-23T08:30:51;100824.78;;;23.09;40.66
19789;BME280;10054;59.332;18.244;2023-05-23T08:33:20;100828.64;;;23.14;40.30
19789;BME280;10054;59.332;18.244;2023-05-23T08:35:50;100829.81;;;23.16;39.93
19789;BME280;10054;59.332;18.244;2023-05-23T08:38:19;100825.39;;;23.31;40.88
19789;BME280;10054;59.332;18.244;2023-05-23T08:40:51;100823.69;;;23.38;40.47
19789;BME280;10054;59.332;18.244;2023-05-23T08:43:21;100831.72;;;23.50;40.63
19789;BME280;10054;59.332;18.244;2023-05-23T08:45:51;100827.52;;;23.56;39.48
19789;BME280;10054;59.332;18.244;2023-05-23T08:48:22;100827.17;;;23.59;38.25
19789;BME280;10054;59.332;18.244;2023-05-23T08:50:53;100826.65;;;23.64;38.55
19789;BME280;10054;59.332;18.244;2023-05-23T08:53:22;100825.95;;;23.70;37.85
19789;BME280;10054;59.332;18.244;2023-05-23T08:55:54;100815.17;;;23.70;37.99
19789;BME280;10054;59.332;18.244;2023-05-23T08:58:27;100822.72;;;23.74;37.17
19789;BME280;10054;59.332;18.244;2023-05-23T09:00:58;100822.31;;;23.81;38.20
19789;BME280;10054;59.332;18.244;2023-05-23T09:03:27;100821.41;;;23.93;38.53
19789;BME280;10054;59.332;18.244;2023-05-23T09:05:58;100814.98;;;23.98;37.74
19789;BME280;10054;59.332;18.244;2023-05-23T09:08:27;100822.70;;;24.01;37.69
19789;BME280;10054;59.332;18.244;2023-05-23T09:10:58;100819.35;;;23.99;37.93
19789;BME280;10054;59.332;18.244;2023-05-23T09:13:32;100817.39;;;23.89;36.78
19789;BME280;10054;59.332;18.244;2023-05-23T09:16:04;100819.69;;;24.00;37.15
19789;BME280;10054;59.332;18.244;2023-05-23T09:18:39;100817.85;;;23.97;35.58
19789;BME280;10054;59.332;18.244;2023-05-23T09:21:10;100812.56;;;24.07;36.01
19789;BME280;10054;59.332;18.244;2023-05-23T09:23:41;100817.59;;;24.10;35.11
19789;BME280;10054;59.332;18.244;2023-05-23T09:26:11;100817.06;;;24.15;35.84
19789;BME280;10054;59.332;18.244;2023-05-23T09:28:41;100816.42;;;24.09;35.11
19789;BME280;10054;59.332;18.244;2023-05-23T09:31:10;100811.06;;;24.05;33.95
19789;BME280;10054;59.332;18.244;2023-05-23T09:33:48;100816.86;;;24.20;34.83
19789;BME280;10054;59.332;18.244;2023-05-23T09:36:18;100821.68;;;24.33;34.89
19789;BME280;10054;59.332;18.244;2023-05-23T09:38:47;100815.48;;;24.24;32.27
19789;BME280;10054;59.332;18.244;2023-05-23T09:41:19;100818.34;;;24.23;31.62
19789;BME280;10054;59.332;18.244;2023-05-23T09:43:52;100824.08;;;24.28;32.34
19789;BME280;10054;59.332;18.244;2023-05-23T09:46:26;100813.47;;;24.22;29.60
19789;BME280;10054;59.332;18.244;2023-05-23T09:48:52;100816.55;;;24.15;30.78
19789;BME280;10054;59.332;18.244;2023-05-23T09:51:23;100821.23;;;24.21;31.30
19789;BME280;10054;59.332;18.244;2023-05-23T09:53:52;100821.89;;;24.28;31.50
19789;BME280;10054;59.332;18.244;2023-05-23T09:56:24;100818.62;;;24.36;31.86
19789;BME280;10054;59.332;18.244;2023-05-23T09:58:56;100819.67;;;24.31;30.00
19789;BME280;10054;59.332;18.244;2023-05-23T10:01:29;100821.44;;;24.16;28.15
19789;BME280;10054;59.332;18.244;2023-05-23T10:03:59;100824.92;;;23.98;28.92
19789;BME280;10054;59.332;18.244;2023-05-23T10:06:34;100825.17;;;24.11;30.08
19789;BME280;10054;59.332;18.244;2023-05-23T10:09:09;100834.43;;;24.12;27.71
19789;BME280;10054;59.332;18.244;2023-05-23T10:14:12;100826.77;;;24.28;30.91
19789;BME280;10054;59.332;18.244;2023-05-23T10:17:02;100823.39;;;24.30;30.41
19789;BME280;10054;59.332;18.244;2023-05-23T10:22:21;100824.43;;;24.48;30.99
19789;BME280;10054;59.332;18.244;2023-05-23T10:24:51;100823.64;;;24.58;30.84
19789;BME280;10054;59.332;18.244;2023-05-23T10:27:30;100828.81;;;24.64;30.73
19789;BME280;10054;59.332;18.244;2023-05-23T10:29:59;100821.89;;;24.65;30.38
19789;BME280;10054;59.332;18.244;2023-05-23T10:32:29;100817.11;;;24.71;30.68
19789;BME280;10054;59.332;18.244;2023-05-23T10:35:20;100821.30;;;24.74;30.37
19789;BME280;10054;59.332;18.244;2023-05-23T10:45:53;100814.92;;;24.71;30.64
19789;BME280;10054;59.332;18.244;2023-05-23T10:48:32;100812.48;;;24.61;29.84
19789;BME280;10054;59.332;18.244;2023-05-23T10:51:06;100818.94;;;24.56;30.94
19789;BME280;10054;59.332;18.244;2023-05-23T10:53:37;100813.54;;;24.56;31.78
19789;BME280;10054;59.332;18.244;2023-05-23T10:56:08;100817.50;;;24.49;31.41
19789;BME280;10054;59.332;18.244;2023-05-23T10:58:40;100810.77;;;24.22;32.42
19789;BME280;10054;59.332;18.244;2023-05-23T11:01:14;100818.26;;;24.12;33.19
19789;BME280;10054;59.332;18.244;2023-05-23T11:03:49;100821.01;;;24.04;33.45
19789;BME280;10054;59.332;18.244;2023-05-23T11:06:37;100819.41;;;23.91;33.32
19789;BME280;10054;59.332;18.244;2023-05-23T11:09:13;100823.33;;;23.80;32.71
19789;BME280;10054;59.332;18.244;2023-05-23T11:11:50;100820.42;;;23.63;33.47
19789;BME280;10054;59.332;18.244;2023-05-23T11:20:03;100818.55;;;23.12;33.47
19789;BME280;10054;59.332;18.244;2023-05-23T11:22:34;100819.73;;;23.10;32.69
19789;BME280;10054;59.332;18.244;2023-05-23T11:25:07;100825.62;;;23.09;32.55
19789;BME280;10054;59.332;18.244;2023-05-23T11:27:37;100820.92;;;23.07;32.66
19789;BME280;10054;59.332;18.244;2023-05-23T11:30:08;100821.07;;;23.14;32.61
19789;BME280;10054;59.332;18.244;2023-05-23T11:32:39;100830.66;;;23.12;33.24
19789;BME280;10054;59.332;18.244;2023-05-23T11:35:09;100833.34;;;23.16;33.26
19789;BME280;10054;59.332;18.244;2023-05-23T11:37:38;100830.33;;;23.11;33.56
19789;BME280;10054;59.332;18.244;2023-05-23T11:43:07;100828.37;;;23.01;33.35
19789;BME280;10054;59.332;18.244;2023-05-23T11:45:38;100826.81;;;23.07;33.74
19789;BME280;10054;59.332;18.244;2023-05-23T11:48:13;100829.00;;;23.03;34.51
19789;BME280;10054;59.332;18.244;2023-05-23T11:50:50;100823.61;;;23.07;34.73
19789;BME280;10054;59.332;18.244;2023-05-23T11:53:21;100826.98;;;23.05;35.04
19789;BME280;10054;59.332;18.244;2023-05-23T11:55:56;100828.99;;;23.07;34.54
19789;BME280;10054;59.332;18.244;2023-05-23T11:58:30;100826.81;;;23.03;34.74
19789;BME280;10054;59.332;18.244;2023-05-23T12:01:00;100826.52;;;22.98;34.67
19789;BME280;10054;59.332;18.244;2023-05-23T12:03:29;100829.88;;;23.00;34.56
19789;BME280;10054;59.332;18.244;2023-05-23T12:05:58;100826.70;;;22.96;34.51
19789;BME280;10054;59.332;18.244;2023-05-23T12:08:28;100821.48;;;22.94;34.94
19789;BME280;10054;59.332;18.244;2023-05-23T12:10:58;100818.95;;;22.97;34.89
19789;BME280;10054;59.332;18.244;2023-05-23T12:13:28;100812.00;;;23.11;34.99
19789;BME280;10054;59.332;18.244;2023-05-23T12:15:59;100817.87;;;23.18;35.11
19789;BME280;10054;59.332;18.244;2023-05-23T12:18:29;100821.21;;;23.24;34.91
19789;BME280;10054;59.332;18.244;2023-05-23T12:21:02;100822.38;;;23.30;35.16
19789;BME280;10054;59.332;18.244;2023-05-23T12:23:32;100825.61;;;23.17;35.74
19789;BME280;10054;59.332;18.244;2023-05-23T12:26:04;100822.43;;;23.10;35.64
19789;BME280;10054;59.332;18.244;2023-05-23T12:28:41;100825.79;;;23.12;35.81
19789;BME280;10054;59.332;18.244;2023-05-23T12:31:15;100831.83;;;23.18;36.03
19789;BME280;10054;59.332;18.244;2023-05-23T12:33:45;100833.20;;;23.06;35.88
19789;BME280;10054;59.332;18.244;2023-05-23T12:36:15;100833.77;;;22.85;35.78
19789;BME280;10054;59.332;18.244;2023-05-23T12:38:45;100835.77;;;22.71;36.01
19789;BME280;10054;59.332;18.244;2023-05-23T12:41:18;100836.95;;;22.60;35.81
19789;BME280;10054;59.332;18.244;2023-05-23T12:43:52;100839.29;;;22.35;36.88
19789;BME280;10054;59.332;18.244;2023-05-23T12:46:23;100843.69;;;22.27;36.94
19789;BME280;10054;59.332;18.244;2023-05-23T12:48:53;100844.17;;;22.19;37.35
19789;BME280;10054;59.332;18.244;2023-05-23T12:51:21;100845.66;;;22.09;38.17
19789;BME280;10054;59.332;18.244;2023-05-23T12:53:50;100838.89;;;21.97;38.01
19789;BME280;10054;59.332;18.244;2023-05-23T12:56:20;100838.39;;;21.97;38.42
19789;BME280;10054;59.332;18.244;2023-05-23T12:58:49;100839.06;;;22.00;38.25
19789;BME280;10054;59.332;18.244;2023-05-23T13:01:18;100842.92;;;21.97;38.38
19789;BME280;10054;59.332;18.244;2023-05-23T13:03:47;100840.24;;;22.01;38.48
19789;BME280;10054;59.332;18.244;2023-05-23T13:06:16;100841.25;;;22.00;38.92
19789;BME280;10054;59.332;18.244;2023-05-23T13:08:45;100833.52;;;22.01;38.57
19789;BME280;10054;59.332;18.244;2023-05-23T13:11:15;100837.26;;;22.04;38.14
19789;BME280;10054;59.332;18.244;2023-05-23T13:13:45;100838.03;;;21.92;38.93
19789;BME280;10054;59.332;18.244;2023-05-23T13:16:14;100836.34;;;21.87;38.63
19789;BME280;10054;59.332;18.244;2023-05-23T13:18:43;100836.53;;;21.94;37.90
19789;BME280;10054;59.332;18.244;2023-05-23T13:21:12;100835.70;;;21.97;38.10
19789;BME280;10054;59.332;18.244;2023-05-23T13:23:42;100840.24;;;22.01;38.50
19789;BME280;10054;59.332;18.244;2023-05-23T13:26:11;100843.80;;;22.02;38.16
19789;BME280;10054;59.332;18.244;2023-05-23T13:28:41;100843.47;;;22.05;38.05
19789;BME280;10054;59.332;18.244;2023-05-23T13:31:09;100846.50;;;22.10;37.94